Kelliher, Canada
Current Conditions -  °F | °C
As of 2:35 AM on Monday 22 Dec 2014 (Local Time) from CYQV Reporting Station
Light Snow Light Snow  
Wind Chill: 13°   Ceiling: 300
Heat Index: 23°   Visibility: 4mi
Dew Point: 23°   Wind: 9mph
Humidity: 100%   Direction: 30°NNE
Pressure: 29.53"   Gusts: NA
Location:  51.27°N, 103.73°W
Report Text: CYQV 220835Z AUTO 03008KT 4SM -SN OVC003 M05/M05 A2953 RMK SLP027
Loading
Personal Weather Stations






























Interactive Weather Map New forecast layout! Learn more

10-Day Weather Forecast

Advertisements
Track Severe Weather on mobile